Latest Coastal Weather Observations for Cape Willoughby

IDS60701

Issued at 10:11 pm CST Sunday 24 July 2016 (issued every 10 minutes, with the page automatically refreshed every 10 minutes)

About coastal observations | Map of coastal stations | Coastal observations for SA | Marine services | Other Formats
Station Details ID: 022803 Name: CAPE WILLOUGHBY Lat: -35.84 Lon: 138.13 Height: 55.0 m
Data from the previous 72 hours. | See also: Recent months at Cape Willoughby
Date/Time
CST
Temp
°C
Wind Pressure Rain since
9am
mm
Weather Cloud Vis
km
Sea
Height
m
Swell
Dir  Spd
kts
Gust
kts
hPa Trend Height
m
Period
s
Dir
24/10:00pm 9.5 WSW 27 36 1010.6 - 18.6 - - - - - - -
24/09:44pm 9.2 W 19 35 1010.7 - 17.6 - - - - - - -
24/09:43pm 9.1 W 18 30 1010.8 - 17.6 - - - - - - -
24/09:38pm 9.1 W 20 30 1010.4 - 16.4 - - - - - - -
24/09:30pm 9.1 W 23 31 1010.2 - 16.0 - - - - - - -
24/09:00pm 9.2 W 20 30 1010.0 - 14.4 Rain - - - - - -
24/08:30pm 9.5 W 20 31 1009.3 - 10.0 - - - - - - -
24/08:00pm 9.8 W 26 40 1008.8 - 8.8 - - - - - - -
24/07:31pm 10.1 W 22 36 1008.0 - 7.4 - - - - - - -
24/07:30pm 10.2 W 22 30 1008.1 - 7.4 - - - - - - -
24/07:09pm 10.6 W 25 36 1007.4 - 7.4 - - - - - - -
24/07:00pm 10.4 W 21 30 1007.2 - 7.2 - - - - - - -
24/06:30pm 9.9 W 21 33 1006.8 - 7.0 - - - - - - -
24/06:04pm 10.3 W 22 32 1006.0 - 7.0 - - - - - - -
24/06:00pm 10.4 W 24 32 1005.8 - 7.0 - - - - - - -
24/05:30pm 10.3 W 24 34 1005.1 - 7.0 - - - - - - -
24/05:22pm 10.2 W 23 34 1004.9 - 7.0 - - - - - - -
24/05:00pm 9.7 WNW 20 28 1004.7 - 7.0 - - - - - - -
24/04:51pm 9.5 WNW 18 28 1004.8 - 6.8 - - - - - - -
24/04:30pm 9.8 W 24 33 1004.8 - 5.6 - - - - - - -
24/04:00pm 9.8 WNW 24 32 1004.0 - 5.6 - - - - - - -
24/03:40pm 9.8 WNW 15 27 1004.2 - 5.2 - - - - - - -
24/03:30pm 9.7 WNW 14 21 1004.4 - 4.6 - - - - - - -
24/03:22pm 9.4 NW 17 27 1004.2 - 4.6 - - - - - - -
24/03:00pm 9.8 WNW 19 25 1004.2 - 4.0 - - - - - - -
24/02:42pm 10.0 WNW 26 38 1004.2 - 4.0 - - - - - - -
24/02:30pm 10.8 WNW 22 32 1004.3 - 4.0 - - - - - - -
24/02:00pm 11.8 WNW 20 30 1004.1 - 4.0 - - - - - - -
24/01:36pm 11.7 W 20 30 1004.5 - 4.0 - - - - - - -
24/01:30pm 11.6 WNW 22 31 1004.5 - 4.0 - - - - - - -
24/01:00pm 10.7 W 18 22 1004.7 - 4.0 - - - - - - -
24/12:46pm 11.1 WNW 15 25 1004.8 - 3.0 - - - - - - -
24/12:30pm 11.4 WNW 19 24 1004.8 - 3.0 - - - - - - -
24/12:00pm 10.5 NW 16 23 1005.0 - 3.0 - - - - - - -
24/11:30am 9.3 NW 14 18 1005.5 - 3.0 - - - - - - -
24/11:00am 8.2 WNW 16 26 1005.7 - 3.0 - - - - - - -
24/10:30am 8.3 WNW 14 18 1005.5 - 2.2 - - - - - - -
24/10:00am 8.2 NW 13 16 1005.3 - 1.4 - - - - - - -
24/09:30am 7.4 WNW 14 19 1004.9 - 1.4 - - - - - - -
24/09:29am 7.5 WNW 15 20 1004.9 - 1.4 - - - - - - -
24/09:00am 7.7 W 25 37 1004.7 - 7.8 Rain - - - - - -
24/08:38am 9.4 NNW 36 51 1004.1 - 5.6 - - - - - - -
24/08:30am 11.0 NNW 39 50 1002.9 - 5.2 - - - - - - -
24/08:00am 11.0 NNW 36 49 1003.3 - 5.2 - - - - - - -
24/07:30am 10.8 NNW 37 50 1003.5 - 5.0 - - - - - - -
24/07:00am 10.5 NNW 35 45 1003.6 - 4.8 - - - - - - -
24/06:50am 10.4 NNW 35 45 1004.0 - 4.8 - - - - - - -
24/06:30am 10.1 NNW 37 45 1004.4 - 4.6 - - - - - - -
24/06:00am 10.1 NNW 35 43 1004.9 - 4.4 Recent precip. - - - - - -
24/05:30am 10.2 NNW 35 43 1005.3 - 4.0 - - - - - - -
24/05:00am 10.4 NNW 32 38 1006.1 - 3.2 - - - - - - -
24/04:30am 10.7 N 32 37 1006.5 - 3.2 - - - - - - -
24/04:00am 10.8 NNW 30 35 1007.1 - 3.2 - - - - - - -
24/03:30am 10.7 NNW 28 34 1007.7 - 3.2 - - - - - - -
24/03:00am 10.5 NNW 30 35 1008.4 - 3.2 - - - - - - -
24/02:30am 10.5 NNW 24 29 1009.1 - 3.2 - - - - - - -
24/02:00am 9.6 NW 14 20 1010.1 - 3.2 - - - - - - -
24/01:30am 9.3 NW 11 16 1010.8 - 3.2 - - - - - - -
24/01:00am 8.2 WNW 9 13 1011.7 - 3.0 - - - - - - -
24/12:30am 8.6 WNW 4 6 1012.2 - 1.6 - - - - - - -
24/12:00am 8.4 NNW 8 10 1012.6 - 1.2 - - - - - - -
 
Date/Time
CST
Temp
°C
Wind Pressure Rain since
9am
mm
Weather Cloud Vis
km
Sea
Height
m
Swell
Dir  Spd
kts
Gust
kts
hPa Trend Height
m
Period
s
Dir
23/11:30pm 8.0 NNW 9 11 1012.9 - 1.2 - - - - - - -
23/11:00pm 8.0 WNW 10 11 1013.2 - 1.2 - - - - - - -
23/10:30pm 8.0 NW 9 10 1013.4 - 1.2 - - - - - - -
23/10:00pm 8.7 NW 9 11 1013.6 - 1.2 - - - - - - -
23/09:30pm 8.3 NW 9 9 1013.9 - 1.2 - - - - - - -
23/09:00pm 8.4 NW 10 11 1014.0 - 1.2 Rain - - - - - -
23/08:30pm 8.3 NW 10 10 1014.2 - 1.0 - - - - - - -
23/08:00pm 8.1 NW 9 9 1014.3 - 1.0 - - - - - - -
23/07:30pm 7.8 NW 10 11 1014.5 - 1.0 - - - - - - -
23/07:00pm 7.7 NW 9 9 1014.4 - 1.0 - - - - - - -
23/06:30pm 8.1 NW 8 8 1014.1 - 1.0 - - - - - - -
23/06:00pm 8.1 NW 8 8 1014.1 - 1.0 - - - - - - -
23/05:30pm 8.4 WNW 6 7 1014.0 - 1.0 - - - - - - -
23/05:00pm 9.3 WSW 9 11 1014.0 - 1.0 - - - - - - -
23/04:30pm 9.6 WNW 7 8 1014.1 - 1.0 - - - - - - -
23/04:00pm 9.9 W 6 9 1014.1 - 1.0 - - - - - - -
23/03:30pm 9.5 WSW 11 16 1014.3 - 1.0 - - - - - - -
23/03:00pm 10.0 WSW 9 16 1014.0 - 1.0 Recent precip. - - - - - -
23/02:30pm 10.0 SW 14 17 1013.8 - 0.8 - - - - - - -
23/02:00pm 10.4 WSW 10 14 1013.7 - 0.8 - - - - - - -
23/01:30pm 10.2 WSW 11 17 1013.8 - 0.8 - - - - - - -
23/01:10pm 10.8 SW 17 27 1013.6 - 0.0 - - - - - - -
23/01:00pm 12.3 WSW 15 21 1013.7 - 0.0 - - - - - - -
23/12:30pm 11.9 SW 15 19 1013.8 - 0.0 - - - - - - -
23/12:00pm 11.9 WSW 18 25 1014.0 - 0.0 - - - - - - -
23/11:30am 11.8 SW 18 23 1014.2 - 0.0 - - - - - - -
23/11:00am 11.5 SW 17 22 1014.2 - 0.0 - - - - - - -
23/10:30am 10.0 W 13 19 1014.3 - 0.0 - - - - - - -
23/10:12am 9.8 SW 22 31 1014.1 - 0.0 - - - - - - -
23/10:06am 11.3 SW 20 31 1013.8 - 0.0 - - - - - - -
23/10:00am 11.7 SW 18 23 1013.6 - 0.0 - - - - - - -
23/09:30am 11.5 SW 18 22 1013.5 - 0.0 - - - - - - -
23/09:00am 11.3 SW 18 25 1013.0 - 1.6 - - - - - - -
23/08:30am 11.0 SW 19 26 1012.5 - 1.6 - - - - - - -
23/08:00am 10.8 SW 20 25 1012.0 - 1.6 - - - - - - -
23/07:30am 10.5 SW 21 29 1011.7 - 1.6 - - - - - - -
23/07:00am 10.6 SW 21 27 1011.0 - 1.6 - - - - - - -
23/06:58am 10.6 SSW 20 27 1011.0 - 1.6 - - - - - - -
23/06:40am 10.9 S 19 29 1010.3 - 1.6 - - - - - - -
23/06:30am 10.7 SSW 21 27 1010.4 - 1.6 - - - - - - -
23/06:00am 10.7 SSW 23 29 1010.1 - 1.6 - - - - - - -
23/05:30am 10.9 SW 24 29 1009.5 - 1.6 - - - - - - -
23/05:04am 11.0 SW 26 36 1009.0 - 1.6 - - - - - - -
23/05:00am 11.3 SW 25 32 1009.2 - 1.6 - - - - - - -
23/04:30am 11.2 SW 23 31 1008.5 - 1.6 - - - - - - -
23/04:00am 10.2 SW 16 28 1008.3 - 1.6 - - - - - - -
23/03:38am 9.7 WSW 21 32 1008.5 - 1.6 - - - - - - -
23/03:30am 10.1 SW 25 33 1008.3 - 1.6 - - - - - - -
23/03:23am 10.7 SW 21 33 1008.1 - 1.6 - - - - - - -
23/03:00am 10.9 SW 22 30 1007.7 - 1.6 - - - - - - -
23/02:30am 10.5 WSW 19 26 1007.8 - 1.6 - - - - - - -
23/02:10am 10.7 SW 21 32 1007.0 - 1.6 - - - - - - -
23/02:00am 10.6 SW 21 27 1007.2 - 1.6 - - - - - - -
23/01:30am 10.6 WSW 21 28 1006.7 - 1.6 - - - - - - -
23/01:02am 10.6 SW 25 35 1005.5 - 1.6 - - - - - - -
23/01:00am 10.6 SW 24 30 1005.8 - 1.6 - - - - - - -
23/12:30am 10.6 SW 26 33 1006.0 - 1.6 - - - - - - -
23/12:00am 10.8 SW 28 36 1005.2 - 1.4 - - - - - - -
 
Date/Time
CST
Temp
°C
Wind Pressure Rain since
9am
mm
Weather Cloud Vis
km
Sea
Height
m
Swell
Dir  Spd
kts
Gust
kts
hPa Trend Height
m
Period
s
Dir
22/11:39pm 10.8 WSW 32 43 1004.2 - 1.4 - - - - - - -
22/11:30pm 11.0 WSW 33 42 1004.2 - 1.4 - - - - - - -
22/11:18pm 10.7 WSW 31 45 1003.8 - 1.4 - - - - - - -
22/11:00pm 10.2 W 25 35 1003.4 - 1.4 - - - - - - -
22/10:30pm 9.1 W 23 33 1002.6 - 1.4 - - - - - - -
22/10:00pm 9.4 WNW 22 34 1002.2 - 1.4 - - - - - - -
22/09:30pm 9.7 W 23 34 1002.0 - 1.4 - - - - - - -
22/09:24pm 9.8 W 23 34 1001.9 - 1.4 - - - - - - -
22/09:00pm 9.8 W 19 25 1002.1 - 1.4 - - - - - - -
22/08:30pm 9.9 W 19 26 1001.3 - 1.4 - - - - - - -
22/08:00pm 9.9 WNW 20 27 1001.0 - 1.4 - - - - - - -
22/07:30pm 9.9 WNW 22 31 1000.2 - 1.4 - - - - - - -
22/07:00pm 10.2 WNW 27 37 999.7 - 1.4 - - - - - - -
22/06:50pm 10.2 WNW 27 41 999.6 - 1.4 - - - - - - -
22/06:48pm 10.4 WNW 25 41 999.4 - 1.4 - - - - - - -
22/06:47pm 10.3 WNW 23 40 999.4 - 1.4 - - - - - - -
22/06:43pm 10.1 WNW 20 30 999.7 - 1.4 - - - - - - -
22/06:30pm 10.1 WNW 20 27 999.6 - 1.4 - - - - - - -
22/06:00pm 10.5 W 21 32 999.1 - 1.4 - - - - - - -
22/05:30pm 11.0 W 24 35 998.7 - 1.4 - - - - - - -
22/05:00pm 11.5 W 24 35 998.1 - 1.4 - - - - - - -
22/04:30pm 11.4 WNW 21 32 997.8 - 1.4 - - - - - - -
22/04:00pm 11.7 WNW 22 29 997.6 - 1.2 - - - - - - -
22/03:30pm 11.2 WNW 22 31 997.1 - 1.2 - - - - - - -
22/03:17pm 11.2 WNW 27 39 997.1 - 1.2 - - - - - - -
22/03:13pm 11.3 WNW 26 39 996.9 - 1.2 - - - - - - -
22/03:00pm 11.3 WNW 21 31 997.2 - 1.2 Recent precip. - - - - - -
22/02:57pm 11.0 WNW 21 31 997.3 - 1.2 - - - - - - -
22/02:54pm 10.9 W 22 31 997.5 - 1.2 - - - - - - -
22/02:39pm 11.5 WNW 25 40 997.9 - 0.6 - - - - - - -
22/02:37pm 12.0 WNW 23 40 997.5 - 0.6 - - - - - - -
22/02:35pm 13.4 WNW 21 36 997.6 - 0.6 - - - - - - -
22/02:30pm 13.8 WNW 22 31 997.4 - 0.2 - - - - - - -
22/02:00pm 14.1 NW 20 26 997.3 - 0.2 - - - - - - -
22/01:30pm 13.4 NW 16 23 997.8 - 0.2 - - - - - - -
22/01:00pm 12.2 NW 18 26 998.6 - 0.2 - - - - - - -
22/12:48pm 12.8 NW 18 29 998.8 - 0.2 - - - - - - -
22/12:30pm 14.1 NW 21 29 998.8 - 0.0 - - - - - - -
22/12:00pm 14.9 WNW 20 29 999.0 - 0.0 - - - - - - -
22/11:30am 14.6 WNW 20 29 999.5 - 0.0 - - - - - - -
22/11:12am 14.0 WNW 21 31 999.8 - 0.0 - - - - - - -
22/11:00am 14.5 NW 16 24 999.8 - 0.0 - - - - - - -
22/10:30am 13.6 WNW 13 18 1000.5 - 0.0 - - - - - - -
22/10:00am 14.0 WNW 15 19 1000.8 - 0.0 - - - - - - -
22/09:30am 13.4 NW 15 19 1001.0 - 0.0 - - - - - - -
22/09:00am 13.7 NW 14 21 1001.2 - 6.2 - - - - - - -
22/08:30am 13.5 NW 16 23 1001.2 - 6.2 - - - - - - -
22/08:00am 13.3 NW 15 21 1001.1 - 6.2 - - - - - - -
22/07:30am 13.2 NW 16 20 1000.8 - 6.2 - - - - - - -
22/07:00am 13.9 NW 19 25 1000.8 - 6.0 - - - - - - -
22/06:30am 13.8 WNW 15 20 1000.7 - 6.0 - - - - - - -
22/06:00am 13.8 WNW 16 22 1000.2 - 6.0 - - - - - - -
22/05:30am 13.9 NW 13 20 1000.4 - 6.0 - - - - - - -
22/05:00am 13.8 NW 11 15 1000.5 - 6.0 - - - - - - -
22/04:30am 14.1 NW 15 22 1000.7 - 6.0 - - - - - - -
22/04:00am 14.3 NW 17 24 1000.8 - 6.0 - - - - - - -
22/03:30am 14.3 NW 17 23 1001.0 - 6.0 - - - - - - -
22/03:00am 14.2 NW 15 22 1000.9 - 6.0 - - - - - - -
22/02:30am 14.3 NNW 13 20 1001.4 - 6.0 - - - - - - -
22/02:00am 14.6 NW 14 19 1001.5 - 6.0 - - - - - - -
22/01:30am 14.7 NNW 15 20 1001.8 - 6.0 - - - - - - -
22/01:00am 14.7 NW 12 15 1002.3 - 6.0 - - - - - - -
22/12:30am 14.8 NW 9 12 1003.0 - 5.6 - - - - - - -
22/12:00am 15.0 NW 11 16 1003.0 - 5.6 Recent precip. - - - - - -
 
Date/Time
CST
Temp
°C
Wind Pressure Rain since
9am
mm
Weather Cloud Vis
km
Sea
Height
m
Swell
Dir  Spd
kts
Gust
kts
hPa Trend Height
m
Period
s
Dir
21/11:30pm 15.1 NW 12 16 1003.0 - 5.6 - - - - - - -
21/11:00pm 15.5 WNW 16 22 1003.3 - 5.4 - - - - - - -
21/10:30pm 15.9 WNW 16 21 1003.1 - 5.2 - - - - - - -

Other Formats:

Comma delimited format used in spreadsheet applications
http://www.bom.gov.au/fwo/IDS60701/IDS60701.94822.axf

JavaScript Object Notation format (JSON) in row-major order
http://www.bom.gov.au/fwo/IDS60701/IDS60701.94822.json